createdAt,value
2023-05-03T00:01:16.666Z,100236.66
2023-05-03T00:03:45.917Z,100235.03
2023-05-03T00:06:14.918Z,100232.53
2023-05-03T00:08:43.072Z,100229.94
2023-05-03T00:11:10.816Z,100220.31
2023-05-03T00:13:37.966Z,100222.97
2023-05-03T00:16:05.766Z,100222.91
2023-05-03T00:18:33.459Z,100229.00
2023-05-03T00:21:00.574Z,100222.81
2023-05-03T00:23:28.584Z,100222.00
2023-05-03T00:25:57.909Z,100221.22
2023-05-03T00:28:26.501Z,100224.00
2023-05-03T00:30:54.008Z,100222.34
2023-05-03T00:33:21.946Z,100221.50
2023-05-03T00:35:49.654Z,100218.91
2023-05-03T00:38:16.894Z,100212.06
2023-05-03T00:40:44.172Z,100214.78
2023-05-03T00:43:13.458Z,100212.09
2023-05-03T00:45:41.158Z,100200.78
2023-05-03T00:48:09.006Z,100207.00
2023-05-03T00:50:37.568Z,100194.63
2023-05-03T00:53:05.108Z,100206.25
2023-05-03T00:55:33.758Z,100199.22
2023-05-03T00:58:01.302Z,100199.31
2023-05-03T01:00:28.747Z,100203.69
2023-05-03T01:02:56.232Z,100195.69
2023-05-03T01:05:24.659Z,100199.97
2023-05-03T01:08:18.628Z,100191.91
2023-05-03T01:10:59.292Z,100196.25
2023-05-03T01:13:43.079Z,100189.97
2023-05-03T01:16:30.549Z,100186.44
2023-05-03T01:19:02.185Z,100191.75
2023-05-03T01:21:31.353Z,100184.69
2023-05-03T01:24:14.188Z,100180.34
2023-05-03T01:26:41.847Z,100182.03
2023-05-03T01:29:09.259Z,100179.44
2023-05-03T01:31:56.166Z,100180.41
2023-05-03T01:34:33.779Z,100176.19
2023-05-03T01:37:04.987Z,100172.84
2023-05-03T01:39:42.975Z,100173.88
2023-05-03T01:42:10.378Z,100175.84
2023-05-03T01:44:40.106Z,100175.84
2023-05-03T01:47:07.907Z,100171.50
2023-05-03T01:49:35.451Z,100173.44
2023-05-03T01:52:02.644Z,100177.09
2023-05-03T01:54:30.452Z,100170.94
2023-05-03T01:56:58.267Z,100177.16
2023-05-03T01:59:26.031Z,100174.59
2023-05-03T02:01:54.138Z,100174.63
2023-05-03T02:04:21.483Z,100180.06
2023-05-03T02:06:48.594Z,100179.28
2023-05-03T02:09:15.821Z,100189.00
2023-05-03T02:11:44.080Z,100185.47
2023-05-03T02:14:12.276Z,100189.94
2023-05-03T02:16:40.526Z,100183.88
2023-05-03T02:19:08.898Z,100188.41
2023-05-03T02:21:38.608Z,100189.47
2023-05-03T02:24:06.205Z,100190.50
2023-05-03T02:26:33.990Z,100188.88
2023-05-03T02:29:01.980Z,100187.25
2023-05-03T02:31:31.926Z,100191.88
2023-05-03T02:33:59.770Z,100189.41
2023-05-03T02:36:27.894Z,100190.53
2023-05-03T02:38:55.467Z,100189.72
2023-05-03T02:41:22.995Z,100182.81
2023-05-03T02:43:51.129Z,100186.44
2023-05-03T02:46:18.968Z,100183.91
2023-05-03T02:48:46.567Z,100182.09
2023-05-03T02:51:14.157Z,100189.03
2023-05-03T02:53:41.436Z,100182.91
2023-05-03T02:56:10.127Z,100178.31
2023-05-03T02:58:37.416Z,100177.13
2023-05-03T03:01:05.750Z,100180.41
2023-05-03T03:03:33.089Z,100174.94
2023-05-03T03:06:00.841Z,100181.88
2023-05-03T03:08:28.558Z,100175.59
2023-05-03T03:11:00.171Z,100177.25
2023-05-03T03:13:27.950Z,100175.41
2023-05-03T03:15:55.681Z,100177.06
2023-05-03T03:18:22.925Z,100173.31
2023-05-03T03:20:50.518Z,100178.38
2023-05-03T03:23:19.893Z,100182.56
2023-05-03T03:25:47.489Z,100183.16
2023-05-03T03:28:16.598Z,100178.31
2023-05-03T03:30:44.911Z,100178.59
2023-05-03T03:33:24.326Z,100184.97
2023-05-03T03:35:54.480Z,100175.69
2023-05-03T03:38:26.611Z,100174.22
2023-05-03T03:41:00.131Z,100174.75
2023-05-03T03:43:27.843Z,100183.25
2023-05-03T03:45:55.183Z,100183.69
2023-05-03T03:48:23.173Z,100177.72
2023-05-03T03:50:51.005Z,100186.13
2023-05-03T03:53:20.729Z,100184.53
2023-05-03T03:55:48.710Z,100188.38
2023-05-03T03:58:18.156Z,100190.28
2023-05-03T04:00:45.777Z,100174.00
2023-05-03T04:03:17.599Z,100170.19
2023-05-03T04:05:45.362Z,100173.50
2023-05-03T04:08:12.772Z,100175.75
2023-05-03T04:10:40.976Z,100182.03
2023-05-03T04:13:09.208Z,100182.69
2023-05-03T04:15:36.480Z,100184.50
2023-05-03T04:18:05.948Z,100192.16
2023-05-03T04:20:37.001Z,100188.09
2023-05-03T04:23:06.294Z,100196.16
2023-05-03T04:25:33.860Z,100206.59
2023-05-03T04:28:10.495Z,100203.44
2023-05-03T04:30:43.722Z,100201.13
2023-05-03T04:33:11.670Z,100209.38
2023-05-03T04:35:39.247Z,100204.28
2023-05-03T04:38:10.087Z,100212.03
2023-05-03T04:40:37.924Z,100203.66
2023-05-03T04:43:08.700Z,100199.94
2023-05-03T04:45:39.890Z,100208.50
2023-05-03T04:48:10.485Z,100204.28
2023-05-03T04:50:37.786Z,100204.69
2023-05-03T04:53:08.206Z,100204.59
2023-05-03T04:55:39.716Z,100197.03
2023-05-03T04:58:07.674Z,100195.47
2023-05-03T05:00:37.007Z,100195.03
2023-05-03T05:03:10.273Z,100195.03
2023-05-03T05:05:38.029Z,100194.72
2023-05-03T05:08:06.235Z,100179.78
2023-05-03T05:10:43.118Z,100180.09
2023-05-03T05:13:14.932Z,100178.69
2023-05-03T05:15:42.460Z,100180.16
2023-05-03T05:18:12.183Z,100179.66
2023-05-03T05:20:40.748Z,100171.44
2023-05-03T05:23:09.073Z,100172.66
2023-05-03T05:25:37.261Z,100162.66
2023-05-03T05:28:05.236Z,100171.38
2023-05-03T05:30:33.920Z,100161.75
2023-05-03T05:33:02.441Z,100167.78
2023-05-03T05:35:30.002Z,100166.81
2023-05-03T05:37:57.800Z,100165.81
2023-05-03T05:40:26.517Z,100173.94
2023-05-03T05:42:56.588Z,100162.00
2023-05-03T05:45:26.230Z,100159.19
2023-05-03T05:47:54.685Z,100152.56
2023-05-03T05:50:22.621Z,100158.19
2023-05-03T05:52:56.342Z,100137.78
2023-05-03T05:55:27.103Z,100133.47
2023-05-03T05:57:56.284Z,100135.84
2023-05-03T06:00:28.413Z,100129.78
2023-05-03T06:02:56.109Z,100133.19
2023-05-03T06:05:23.746Z,100140.44
2023-05-03T06:07:51.271Z,100139.59
2023-05-03T06:10:18.772Z,100128.75
2023-05-03T06:12:51.334Z,100135.56
2023-05-03T06:15:23.196Z,100133.16
2023-05-03T06:17:50.588Z,100137.88
2023-05-03T06:20:18.721Z,100128.75
2023-05-03T06:22:47.881Z,100147.38
2023-05-03T06:25:17.840Z,100140.34
2023-05-03T06:27:50.361Z,100134.41
2023-05-03T06:30:20.988Z,100134.03
2023-05-03T06:32:50.030Z,100128.28
2023-05-03T06:35:20.011Z,100125.47
2023-05-03T06:37:48.285Z,100129.38
2023-05-03T06:40:16.293Z,100132.78
2023-05-03T06:42:44.075Z,100130.69
2023-05-03T06:45:31.593Z,100135.88
2023-05-03T06:47:59.537Z,100144.75
2023-05-03T06:50:27.513Z,100129.56
2023-05-03T06:52:55.222Z,100145.69
2023-05-03T06:55:22.805Z,100120.53
2023-05-03T06:57:52.591Z,100141.19
2023-05-03T07:00:22.052Z,100133.66
2023-05-03T07:02:49.917Z,100136.81
2023-05-03T07:05:17.702Z,100139.13
2023-05-03T07:07:45.168Z,100110.28
2023-05-03T07:10:12.536Z,100129.28
2023-05-03T07:12:39.684Z,100135.03
2023-05-03T07:15:07.614Z,100124.38
2023-05-03T07:17:35.052Z,100127.22
2023-05-03T07:20:02.868Z,100130.94
2023-05-03T07:22:30.310Z,100139.03
2023-05-03T07:25:00.089Z,100133.22
2023-05-03T07:27:27.800Z,100142.41
2023-05-03T07:29:55.236Z,100133.00
2023-05-03T07:32:22.917Z,100124.97
2023-05-03T07:34:50.597Z,100129.75
2023-05-03T07:37:18.035Z,100123.69
2023-05-03T07:39:45.962Z,100118.63
2023-05-03T07:42:13.443Z,100133.72
2023-05-03T07:44:41.540Z,100124.66
2023-05-03T07:47:08.980Z,100132.47
2023-05-03T07:49:38.559Z,100135.72
2023-05-03T07:52:06.489Z,100145.19
2023-05-03T07:54:34.417Z,100143.06
2023-05-03T07:57:04.234Z,100142.34
2023-05-03T07:59:31.674Z,100127.69
2023-05-03T08:02:01.338Z,100133.81
2023-05-03T08:04:29.208Z,100130.69
2023-05-03T08:06:57.033Z,100133.25
2023-05-03T08:09:25.277Z,100136.13
2023-05-03T08:11:52.599Z,100143.06
2023-05-03T08:14:20.265Z,100142.53
2023-05-03T08:16:48.100Z,100145.75
2023-05-03T08:19:16.221Z,100140.50
2023-05-03T08:21:43.698Z,100138.19
2023-05-03T08:24:12.534Z,100147.50
2023-05-03T08:26:42.130Z,100142.81
2023-05-03T08:29:10.087Z,100139.97
2023-05-03T08:31:37.755Z,100140.69
2023-05-03T08:34:07.056Z,100142.03
2023-05-03T08:36:36.189Z,100156.53
2023-05-03T08:39:07.073Z,100149.19
2023-05-03T08:41:35.014Z,100148.03
2023-05-03T08:44:05.876Z,100144.34
2023-05-03T08:46:37.376Z,100144.75
2023-05-03T08:49:07.458Z,100144.28
2023-05-03T08:51:36.270Z,100148.00
2023-05-03T08:54:03.936Z,100153.88
2023-05-03T08:56:44.198Z,100154.19
2023-05-03T08:59:12.055Z,100147.31
2023-05-03T09:01:41.542Z,100144.50
2023-05-03T09:04:11.578Z,100125.22
2023-05-03T09:06:39.640Z,100136.03
2023-05-03T09:09:09.075Z,100135.69
2023-05-03T09:11:39.352Z,100128.47
2023-05-03T09:14:19.427Z,100127.75
2023-05-03T09:16:47.715Z,100135.34
2023-05-03T09:19:16.644Z,100126.66
2023-05-03T09:21:47.403Z,100126.44
2023-05-03T09:24:21.684Z,100116.25
2023-05-03T09:26:51.387Z,100127.81
2023-05-03T09:29:34.412Z,100131.91
2023-05-03T09:32:05.986Z,100125.63
2023-05-03T09:34:35.896Z,100134.94
2023-05-03T09:37:03.636Z,100123.50
2023-05-03T09:39:31.762Z,100126.47
2023-05-03T09:41:59.465Z,100126.34
2023-05-03T09:44:42.572Z,100121.31
2023-05-03T09:47:11.017Z,100116.53
2023-05-03T09:49:39.796Z,100123.69
2023-05-03T09:52:09.160Z,100118.47
2023-05-03T09:54:37.004Z,100119.69
2023-05-03T09:57:06.585Z,100117.00
2023-05-03T09:59:35.518Z,100111.69
2023-05-03T10:02:06.403Z,100104.47
2023-05-03T10:04:45.078Z,100109.72
2023-05-03T10:07:17.890Z,100112.72
2023-05-03T10:09:48.304Z,100127.31
2023-05-03T10:12:21.669Z,100118.88
2023-05-03T10:14:57.853Z,100129.91
2023-05-03T10:17:46.185Z,100117.72
2023-05-03T10:20:42.939Z,100131.94
2023-05-03T10:23:14.779Z,100130.97
2023-05-03T10:26:11.102Z,100124.69
2023-05-03T10:28:39.589Z,100135.31
2023-05-03T10:31:27.506Z,100130.19
2023-05-03T10:33:55.977Z,100121.69
2023-05-03T10:36:26.022Z,100124.59
2023-05-03T10:38:57.801Z,100127.63
2023-05-03T10:41:27.308Z,100127.50
2023-05-03T10:43:55.159Z,100114.78
2023-05-03T10:46:34.148Z,100122.84
2023-05-03T10:49:26.851Z,100123.53
2023-05-03T10:51:56.634Z,100111.53
2023-05-03T10:54:25.233Z,100113.13
2023-05-03T10:56:55.353Z,100109.38
2023-05-03T10:59:24.746Z,100107.50
2023-05-03T11:01:53.493Z,100107.56
2023-05-03T11:04:35.148Z,100103.41
2023-05-03T11:07:03.112Z,100110.03
2023-05-03T11:09:32.615Z,100115.59
2023-05-03T11:12:04.748Z,100107.94
2023-05-03T11:14:32.093Z,100098.88
2023-05-03T11:16:59.957Z,100104.13
2023-05-03T11:19:27.979Z,100101.38
2023-05-03T11:21:55.901Z,100095.34
2023-05-03T11:24:23.719Z,100102.16
2023-05-03T11:26:51.746Z,100103.59
2023-05-03T11:29:21.370Z,100097.16
2023-05-03T11:31:48.947Z,100094.34
2023-05-03T11:34:16.604Z,100084.72
2023-05-03T11:36:44.689Z,100087.59
2023-05-03T11:39:15.043Z,100089.84
2023-05-03T11:41:42.790Z,100091.06
2023-05-03T11:44:17.084Z,100087.97
2023-05-03T11:46:47.125Z,100082.06
2023-05-03T11:49:19.533Z,100085.22
2023-05-03T11:51:51.660Z,100068.91
2023-05-03T11:54:26.375Z,100085.44
2023-05-03T11:56:59.987Z,100075.13
2023-05-03T11:59:41.492Z,100075.22
2023-05-03T12:02:14.965Z,100081.09
2023-05-03T12:04:48.205Z,100074.06
2023-05-03T12:07:19.414Z,100084.09
2023-05-03T12:10:00.734Z,100093.19
2023-05-03T12:12:40.891Z,100075.19
2023-05-03T12:15:11.624Z,100072.78
2023-05-03T12:17:44.388Z,100068.72
2023-05-03T12:22:57.247Z,100079.03
2023-05-03T12:25:29.146Z,100074.13
2023-05-03T12:28:18.694Z,100064.69
2023-05-03T12:30:47.935Z,100072.53
2023-05-03T12:33:21.823Z,100058.09
2023-05-03T12:35:52.739Z,100050.88
2023-05-03T12:38:23.887Z,100055.09
2023-05-03T12:40:53.961Z,100057.25
2023-05-03T12:43:22.145Z,100044.97
2023-05-03T12:46:00.697Z,100045.69
2023-05-03T12:48:38.204Z,100041.72
2023-05-03T12:53:38.854Z,100050.78
2023-05-03T12:56:07.610Z,100049.69
2023-05-03T13:03:44.301Z,100043.25
2023-05-03T13:06:14.442Z,100036.00
2023-05-03T13:11:13.391Z,100036.47
2023-05-03T13:13:41.482Z,100035.75
2023-05-03T13:16:09.650Z,100029.34
2023-05-03T13:18:37.449Z,100034.16
2023-05-03T13:21:05.569Z,100035.69
2023-05-03T13:23:34.173Z,100034.53
2023-05-03T13:26:01.855Z,100036.84
2023-05-03T13:28:29.194Z,100032.22
2023-05-03T13:30:57.553Z,100029.53
2023-05-03T13:33:26.224Z,100026.94
2023-05-03T13:35:54.909Z,100028.25
2023-05-03T13:38:22.658Z,100025.56
2023-05-03T13:40:50.730Z,100033.91
2023-05-03T13:43:17.872Z,100030.56
2023-05-03T13:45:45.517Z,100034.56
2023-05-03T13:48:18.507Z,100030.41
2023-05-03T13:50:47.202Z,100020.78
2023-05-03T13:53:15.308Z,100025.69
2023-05-03T13:55:42.531Z,100029.78
2023-05-03T13:58:11.481Z,100028.63
2023-05-03T14:00:39.071Z,100031.47
2023-05-03T14:03:07.949Z,100028.69
2023-05-03T14:05:36.130Z,100040.88
2023-05-03T14:08:03.534Z,100032.03
2023-05-03T14:10:35.973Z,100028.56
2023-05-03T14:13:04.075Z,100035.97
2023-05-03T14:15:32.167Z,100035.09
2023-05-03T14:18:03.027Z,100034.13
2023-05-03T14:20:34.316Z,100038.69
2023-05-03T14:23:02.600Z,100033.81
2023-05-03T14:25:31.561Z,100039.75
2023-05-03T14:28:01.654Z,100030.56
2023-05-03T14:30:29.584Z,100031.41
2023-05-03T14:32:57.078Z,100033.44
2023-05-03T14:35:25.154Z,100034.44
2023-05-03T14:37:52.956Z,100039.03
2023-05-03T14:40:21.057Z,100033.38
2023-05-03T14:42:49.125Z,100031.91
2023-05-03T14:45:17.556Z,100037.44
2023-05-03T14:47:45.345Z,100033.13
2023-05-03T14:50:13.264Z,100035.16
2023-05-03T14:52:41.139Z,100030.88
2023-05-03T14:55:09.424Z,100040.38
2023-05-03T14:57:38.617Z,100037.69
2023-05-03T15:00:14.494Z,100041.22
2023-05-03T15:02:43.324Z,100043.75
2023-05-03T15:05:14.180Z,100041.22
2023-05-03T15:07:41.787Z,100039.16
2023-05-03T15:10:10.231Z,100036.25
2023-05-03T15:12:39.337Z,100037.00
2023-05-03T15:15:10.096Z,100033.59
2023-05-03T15:17:37.957Z,100036.22
2023-05-03T15:20:07.915Z,100042.88
2023-05-03T15:22:36.876Z,100037.03
2023-05-03T15:25:04.849Z,100041.72
2023-05-03T15:27:32.753Z,100040.94
2023-05-03T15:30:00.634Z,100036.25
2023-05-03T15:32:28.547Z,100034.19
2023-05-03T15:34:56.401Z,100037.59
2023-05-03T15:37:24.369Z,100039.47
2023-05-03T15:39:51.660Z,100031.31
2023-05-03T15:42:19.621Z,100040.22
2023-05-03T15:44:49.820Z,100040.63
2023-05-03T15:47:17.563Z,100043.81
2023-05-03T15:49:45.469Z,100034.59
2023-05-03T15:52:13.433Z,100047.88
2023-05-03T15:54:41.810Z,100044.47
2023-05-03T15:57:09.654Z,100035.94
2023-05-03T15:59:38.488Z,100041.94
2023-05-03T16:02:14.893Z,100047.06
2023-05-03T16:04:43.284Z,100042.34
2023-05-03T16:07:12.258Z,100041.34
2023-05-03T16:09:39.704Z,100046.84
2023-05-03T16:12:08.818Z,100054.59
2023-05-03T16:14:36.635Z,100042.50
2023-05-03T16:17:04.323Z,100047.22
2023-05-03T16:19:32.276Z,100054.69
2023-05-03T16:22:00.383Z,100060.31
2023-05-03T16:24:29.166Z,100062.25
2023-05-03T16:26:57.050Z,100071.25
2023-05-03T16:29:26.360Z,100071.31
2023-05-03T16:31:53.915Z,100068.56
2023-05-03T16:34:21.761Z,100069.31
2023-05-03T16:36:49.363Z,100076.59
2023-05-03T16:39:17.171Z,100078.22
2023-05-03T16:41:49.179Z,100086.34
2023-05-03T16:44:19.265Z,100089.31
2023-05-03T16:46:48.240Z,100086.66
2023-05-03T16:49:15.663Z,100089.25
2023-05-03T16:51:43.639Z,100095.38
2023-05-03T16:54:12.875Z,100089.13
2023-05-03T16:56:40.242Z,100097.06
2023-05-03T16:59:08.110Z,100100.75
2023-05-03T17:01:35.771Z,100102.34
2023-05-03T17:04:04.885Z,100099.88
2023-05-03T17:06:33.897Z,100107.22
2023-05-03T17:09:02.044Z,100109.13
2023-05-03T17:11:30.268Z,100105.75
2023-05-03T17:14:01.535Z,100104.34
2023-05-03T17:16:29.077Z,100104.75
2023-05-03T17:18:58.182Z,100103.47
2023-05-03T17:21:25.696Z,100110.19
2023-05-03T17:23:53.348Z,100115.91
2023-05-03T17:26:22.580Z,100103.00
2023-05-03T17:28:50.345Z,100111.16
2023-05-03T17:31:17.753Z,100119.22
2023-05-03T17:33:45.225Z,100126.97
2023-05-03T17:36:12.964Z,100122.97
2023-05-03T17:38:40.554Z,100122.44
2023-05-03T17:41:09.500Z,100126.41
2023-05-03T17:43:38.070Z,100134.22
2023-05-03T17:46:14.976Z,100134.06
2023-05-03T17:48:44.460Z,100147.44
2023-05-03T17:51:17.639Z,100140.91
2023-05-03T17:53:45.309Z,100152.78
2023-05-03T17:56:17.561Z,100161.00
2023-05-03T17:58:45.937Z,100170.94
2023-05-03T18:01:13.905Z,100168.50
2023-05-03T18:03:42.269Z,100170.53
2023-05-03T18:06:11.725Z,100175.63
2023-05-03T18:08:39.325Z,100169.72
2023-05-03T18:11:07.578Z,100176.22
2023-05-03T18:13:35.228Z,100189.31
2023-05-03T18:16:09.099Z,100184.91
2023-05-03T18:18:36.693Z,100188.38
2023-05-03T18:21:05.108Z,100189.88
2023-05-03T18:23:33.154Z,100191.22
2023-05-03T18:26:01.069Z,100197.59
2023-05-03T18:28:28.717Z,100202.28
2023-05-03T18:30:56.280Z,100202.03
2023-05-03T18:33:23.993Z,100198.00
2023-05-03T18:35:53.372Z,100204.97
2023-05-03T18:38:21.924Z,100213.69
2023-05-03T18:40:50.360Z,100216.38
2023-05-03T18:43:18.215Z,100215.44
2023-05-03T18:45:45.533Z,100216.94
2023-05-03T18:48:14.714Z,100219.44
2023-05-03T18:50:45.447Z,100219.09
2023-05-03T18:53:13.256Z,100229.59
2023-05-03T18:55:41.978Z,100224.09
2023-05-03T18:58:10.779Z,100230.63
2023-05-03T19:00:38.276Z,100232.59
2023-05-03T19:03:06.762Z,100233.59
2023-05-03T19:05:34.432Z,100247.25
2023-05-03T19:08:02.143Z,100240.28
2023-05-03T19:10:29.608Z,100237.94
2023-05-03T19:12:57.731Z,100251.75
2023-05-03T19:15:25.474Z,100257.88
2023-05-03T19:17:54.692Z,100259.81
2023-05-03T19:20:22.695Z,100264.31
2023-05-03T19:22:50.243Z,100267.81
2023-05-03T19:25:17.873Z,100272.13
2023-05-03T19:27:45.422Z,100275.97
2023-05-03T19:30:13.115Z,100276.97
2023-05-03T19:32:41.109Z,100279.56
2023-05-03T19:35:11.769Z,100277.09
2023-05-03T19:37:39.285Z,100284.91
2023-05-03T19:40:07.912Z,100287.81
2023-05-03T19:42:35.341Z,100285.84
2023-05-03T19:45:06.548Z,100280.25
2023-05-03T19:47:34.096Z,100282.84
2023-05-03T19:50:01.878Z,100291.81
2023-05-03T19:52:29.553Z,100288.19
2023-05-03T19:54:57.913Z,100289.75
2023-05-03T19:57:26.008Z,100291.94
2023-05-03T19:59:53.377Z,100293.97
2023-05-03T20:02:24.162Z,100292.44
2023-05-03T20:04:52.671Z,100297.16
2023-05-03T20:07:20.136Z,100288.34
2023-05-03T20:09:47.509Z,100292.59
2023-05-03T20:12:14.769Z,100288.56
2023-05-03T20:14:42.366Z,100287.63
2023-05-03T20:17:09.841Z,100294.00
2023-05-03T20:19:38.365Z,100279.16
2023-05-03T20:22:05.640Z,100282.78
2023-05-03T20:24:33.046Z,100288.13
2023-05-03T20:27:04.218Z,100299.16
2023-05-03T20:29:31.794Z,100292.34
2023-05-03T20:31:59.347Z,100295.47
2023-05-03T20:34:27.406Z,100298.31
2023-05-03T20:36:55.039Z,100307.56
2023-05-03T20:39:22.396Z,100303.63
2023-05-03T20:41:49.943Z,100305.88
2023-05-03T20:44:17.262Z,100307.22
2023-05-03T20:46:45.694Z,100308.44
2023-05-03T20:49:13.807Z,100309.78
2023-05-03T20:51:41.298Z,100313.81
2023-05-03T20:54:08.834Z,100313.47
2023-05-03T20:56:36.178Z,100319.75
2023-05-03T20:59:05.251Z,100318.00
2023-05-03T21:01:32.820Z,100327.09
2023-05-03T21:04:00.779Z,100327.94
2023-05-03T21:06:28.400Z,100319.97
2023-05-03T21:08:55.875Z,100327.94
2023-05-03T21:11:23.361Z,100331.72
2023-05-03T21:13:51.423Z,100333.72
2023-05-03T21:16:19.134Z,100334.03
2023-05-03T21:18:46.999Z,100330.88
2023-05-03T21:21:15.643Z,100333.72
2023-05-03T21:23:43.069Z,100328.75
2023-05-03T21:26:11.047Z,100334.22
2023-05-03T21:28:38.343Z,100331.63
2023-05-03T21:31:05.869Z,100344.13
2023-05-03T21:33:33.525Z,100340.03
2023-05-03T21:36:01.151Z,100338.59
2023-05-03T21:38:28.800Z,100340.66
2023-05-03T21:41:08.782Z,100334.81
2023-05-03T21:43:37.279Z,100340.50
2023-05-03T21:46:08.788Z,100341.69
2023-05-03T21:48:37.817Z,100336.75
2023-05-03T21:51:05.494Z,100337.97
2023-05-03T21:53:33.524Z,100335.66
2023-05-03T21:56:00.870Z,100332.38
2023-05-03T21:58:28.420Z,100329.94
2023-05-03T22:00:55.907Z,100331.03
2023-05-03T22:03:23.434Z,100320.56
2023-05-03T22:05:51.912Z,100326.81
2023-05-03T22:08:19.672Z,100327.69
2023-05-03T22:10:47.455Z,100326.81
2023-05-03T22:13:15.561Z,100327.78
2023-05-03T22:15:42.941Z,100324.28
2023-05-03T22:18:10.656Z,100319.03
2023-05-03T22:20:37.967Z,100317.28
2023-05-03T22:23:05.560Z,100313.78
2023-05-03T22:25:33.346Z,100313.88
2023-05-03T22:28:01.320Z,100323.75
2023-05-03T22:30:29.336Z,100323.06
2023-05-03T22:32:57.041Z,100320.56
2023-05-03T22:35:24.649Z,100321.63
2023-05-03T22:37:52.415Z,100321.13
2023-05-03T22:40:20.491Z,100324.13
2023-05-03T22:42:48.033Z,100319.19
2023-05-03T22:45:15.938Z,100323.94
2023-05-03T22:47:43.966Z,100319.84
2023-05-03T22:50:11.734Z,100313.94
2023-05-03T22:52:39.235Z,100318.59
2023-05-03T22:55:08.304Z,100324.09
2023-05-03T22:57:36.107Z,100325.25
2023-05-03T23:00:07.116Z,100331.41
2023-05-03T23:02:35.022Z,100331.47
2023-05-03T23:05:02.881Z,100328.00
2023-05-03T23:07:30.545Z,100332.44
2023-05-03T23:10:03.580Z,100336.03
2023-05-03T23:12:32.405Z,100332.63
2023-05-03T23:14:59.922Z,100328.25
2023-05-03T23:17:27.943Z,100330.94
2023-05-03T23:19:55.653Z,100318.63
2023-05-03T23:22:22.798Z,100327.34
2023-05-03T23:24:50.307Z,100322.03
2023-05-03T23:27:20.248Z,100321.91
2023-05-03T23:29:48.463Z,100317.34
2023-05-03T23:32:16.553Z,100315.41
2023-05-03T23:34:44.457Z,100319.66
2023-05-03T23:37:11.788Z,100319.47
2023-05-03T23:39:44.487Z,100314.94
2023-05-03T23:42:13.306Z,100312.13
2023-05-03T23:44:50.823Z,100307.53
2023-05-03T23:47:21.281Z,100311.75
2023-05-03T23:49:48.923Z,100305.44
2023-05-03T23:52:19.231Z,100314.03
2023-05-03T23:54:46.862Z,100305.13
2023-05-03T23:57:14.275Z,100316.50
2023-05-03T23:59:42.137Z,100321.69
